sensor_id;sensor_type;location;lat;lon;timestamp;temperature;humidity
53776;DHT22;44276;49.534;6.378;2022-12-07T00:01:57;1.40;99.90
53776;DHT22;44276;49.534;6.378;2022-12-07T00:04:25;1.50;99.90
53776;DHT22;44276;49.534;6.378;2022-12-07T00:06:55;1.60;99.90
53776;DHT22;44276;49.534;6.378;2022-12-07T00:09:23;1.70;99.90
53776;DHT22;44276;49.534;6.378;2022-12-07T00:11:51;1.80;99.90
53776;DHT22;44276;49.534;6.378;2022-12-07T00:14:20;1.80;99.90
53776;DHT22;44276;49.534;6.378;2022-12-07T00:16:49;1.90;99.90
53776;DHT22;44276;49.534;6.378;2022-12-07T00:19:18;2.00;99.90
53776;DHT22;44276;49.534;6.378;2022-12-07T00:21:46;2.00;99.90
53776;DHT22;44276;49.534;6.378;2022-12-07T00:24:16;2.00;99.90
53776;DHT22;44276;49.534;6.378;2022-12-07T00:26:44;2.10;99.90
53776;DHT22;44276;49.534;6.378;2022-12-07T00:29:13;2.20;99.90
53776;DHT22;44276;49.534;6.378;2022-12-07T00:31:43;2.20;99.90
53776;DHT22;44276;49.534;6.378;2022-12-07T00:34:12;2.20;99.90
53776;DHT22;44276;49.534;6.378;2022-12-07T00:36:42;2.20;99.90
53776;DHT22;44276;49.534;6.378;2022-12-07T00:39:10;2.30;99.90
53776;DHT22;44276;49.534;6.378;2022-12-07T00:41:40;2.30;99.90
53776;DHT22;44276;49.534;6.378;2022-12-07T00:44:08;2.40;99.90
53776;DHT22;44276;49.534;6.378;2022-12-07T00:46:37;2.40;99.90
53776;DHT22;44276;49.534;6.378;2022-12-07T00:49:05;2.40;99.90
53776;DHT22;44276;49.534;6.378;2022-12-07T00:51:33;2.40;99.90
53776;DHT22;44276;49.534;6.378;2022-12-07T00:54:02;2.40;99.90
53776;DHT22;44276;49.534;6.378;2022-12-07T00:56:30;2.40;99.90
53776;DHT22;44276;49.534;6.378;2022-12-07T00:59:01;2.50;99.90
53776;DHT22;44276;49.534;6.378;2022-12-07T01:01:32;2.50;99.90
53776;DHT22;44276;49.534;6.378;2022-12-07T01:04:01;2.50;99.90
53776;DHT22;44276;49.534;6.378;2022-12-07T01:06:30;2.50;99.90
53776;DHT22;44276;49.534;6.378;2022-12-07T01:09:00;2.50;99.90
53776;DHT22;44276;49.534;6.378;2022-12-07T01:11:28;2.50;99.90
53776;DHT22;44276;49.534;6.378;2022-12-07T01:13:58;2.60;99.90
53776;DHT22;44276;49.534;6.378;2022-12-07T01:16:33;2.60;99.90
53776;DHT22;44276;49.534;6.378;2022-12-07T01:19:02;2.60;99.90
53776;DHT22;44276;49.534;6.378;2022-12-07T01:21:32;2.60;99.90
53776;DHT22;44276;49.534;6.378;2022-12-07T01:24:04;2.60;99.90
53776;DHT22;44276;49.534;6.378;2022-12-07T01:26:34;2.60;99.90
53776;DHT22;44276;49.534;6.378;2022-12-07T01:29:02;2.70;99.90
53776;DHT22;44276;49.534;6.378;2022-12-07T01:31:32;2.60;99.90
53776;DHT22;44276;49.534;6.378;2022-12-07T01:34:01;2.60;99.90
53776;DHT22;44276;49.534;6.378;2022-12-07T01:36:30;2.60;99.90
53776;DHT22;44276;49.534;6.378;2022-12-07T01:39:00;2.60;99.90
53776;DHT22;44276;49.534;6.378;2022-12-07T01:41:31;2.60;99.90
53776;DHT22;44276;49.534;6.378;2022-12-07T01:49:29;2.70;99.90
53776;DHT22;44276;49.534;6.378;2022-12-07T01:52:03;2.70;99.90
53776;DHT22;44276;49.534;6.378;2022-12-07T01:54:39;2.70;99.90
53776;DHT22;44276;49.534;6.378;2022-12-07T01:57:08;2.70;99.90
53776;DHT22;44276;49.534;6.378;2022-12-07T01:59:37;2.70;99.90
53776;DHT22;44276;49.534;6.378;2022-12-07T02:02:07;2.70;99.90
53776;DHT22;44276;49.534;6.378;2022-12-07T02:04:41;2.70;99.90
53776;DHT22;44276;49.534;6.378;2022-12-07T02:07:10;2.70;99.90
53776;DHT22;44276;49.534;6.378;2022-12-07T02:09:38;2.70;99.90
53776;DHT22;44276;49.534;6.378;2022-12-07T02:12:08;2.80;99.90
53776;DHT22;44276;49.534;6.378;2022-12-07T02:14:37;2.80;99.90
53776;DHT22;44276;49.534;6.378;2022-12-07T02:17:08;2.80;99.90
53776;DHT22;44276;49.534;6.378;2022-12-07T02:19:57;2.90;99.90
53776;DHT22;44276;49.534;6.378;2022-12-07T02:22:44;2.90;99.90
53776;DHT22;44276;49.534;6.378;2022-12-07T02:25:35;2.90;99.90
53776;DHT22;44276;49.534;6.378;2022-12-07T02:28:16;2.90;99.90
53776;DHT22;44276;49.534;6.378;2022-12-07T02:30:52;2.90;99.90
53776;DHT22;44276;49.534;6.378;2022-12-07T02:33:24;3.00;99.90
53776;DHT22;44276;49.534;6.378;2022-12-07T02:35:57;3.10;99.90
53776;DHT22;44276;49.534;6.378;2022-12-07T02:38:31;3.00;99.90
53776;DHT22;44276;49.534;6.378;2022-12-07T02:41:04;3.10;99.90
53776;DHT22;44276;49.534;6.378;2022-12-07T02:43:36;3.00;99.90
53776;DHT22;44276;49.534;6.378;2022-12-07T02:46:09;3.00;99.90
53776;DHT22;44276;49.534;6.378;2022-12-07T02:48:42;3.10;99.90
53776;DHT22;44276;49.534;6.378;2022-12-07T02:51:11;3.10;99.90
53776;DHT22;44276;49.534;6.378;2022-12-07T02:53:40;3.10;99.90
53776;DHT22;44276;49.534;6.378;2022-12-07T02:56:11;3.10;99.90
53776;DHT22;44276;49.534;6.378;2022-12-07T02:58:50;3.10;99.90
53776;DHT22;44276;49.534;6.378;2022-12-07T03:01:31;3.10;99.90
53776;DHT22;44276;49.534;6.378;2022-12-07T03:04:13;3.10;99.90
53776;DHT22;44276;49.534;6.378;2022-12-07T03:12:00;2.90;99.90
53776;DHT22;44276;49.534;6.378;2022-12-07T03:14:34;3.00;99.90
53776;DHT22;44276;49.534;6.378;2022-12-07T03:17:12;2.90;99.90
53776;DHT22;44276;49.534;6.378;2022-12-07T03:19:43;2.90;99.90
53776;DHT22;44276;49.534;6.378;2022-12-07T03:22:14;2.90;99.90
53776;DHT22;44276;49.534;6.378;2022-12-07T03:24:45;2.90;99.90
53776;DHT22;44276;49.534;6.378;2022-12-07T03:27:17;2.90;99.90
53776;DHT22;44276;49.534;6.378;2022-12-07T03:29:49;2.90;99.90
53776;DHT22;44276;49.534;6.378;2022-12-07T03:32:23;3.00;99.90
53776;DHT22;44276;49.534;6.378;2022-12-07T03:34:56;3.00;99.90
53776;DHT22;44276;49.534;6.378;2022-12-07T03:37:30;3.00;99.90
53776;DHT22;44276;49.534;6.378;2022-12-07T03:40:03;3.00;99.90
53776;DHT22;44276;49.534;6.378;2022-12-07T03:42:39;3.00;99.90
53776;DHT22;44276;49.534;6.378;2022-12-07T03:45:08;3.00;99.90
53776;DHT22;44276;49.534;6.378;2022-12-07T03:47:41;3.00;99.90
53776;DHT22;44276;49.534;6.378;2022-12-07T03:50:15;3.00;99.90
53776;DHT22;44276;49.534;6.378;2022-12-07T03:52:53;3.00;99.90
53776;DHT22;44276;49.534;6.378;2022-12-07T03:55:25;3.00;99.90
53776;DHT22;44276;49.534;6.378;2022-12-07T03:57:56;3.00;99.90
53776;DHT22;44276;49.534;6.378;2022-12-07T04:00:29;3.00;99.90
53776;DHT22;44276;49.534;6.378;2022-12-07T04:03:00;3.00;99.90
53776;DHT22;44276;49.534;6.378;2022-12-07T04:05:28;3.10;99.90
53776;DHT22;44276;49.534;6.378;2022-12-07T04:07:56;3.00;99.90
53776;DHT22;44276;49.534;6.378;2022-12-07T04:10:25;3.00;99.90
53776;DHT22;44276;49.534;6.378;2022-12-07T04:12:53;3.10;99.90
53776;DHT22;44276;49.534;6.378;2022-12-07T04:15:21;3.10;99.90
53776;DHT22;44276;49.534;6.378;2022-12-07T04:17:49;3.10;99.90
53776;DHT22;44276;49.534;6.378;2022-12-07T04:20:19;3.10;99.90
53776;DHT22;44276;49.534;6.378;2022-12-07T04:22:47;3.10;99.90
53776;DHT22;44276;49.534;6.378;2022-12-07T04:25:15;3.10;99.90
53776;DHT22;44276;49.534;6.378;2022-12-07T04:27:44;3.10;99.90
53776;DHT22;44276;49.534;6.378;2022-12-07T04:30:12;3.10;99.90
53776;DHT22;44276;49.534;6.378;2022-12-07T04:32:40;3.10;99.90
53776;DHT22;44276;49.534;6.378;2022-12-07T04:35:08;3.00;99.90
53776;DHT22;44276;49.534;6.378;2022-12-07T04:37:38;3.10;99.90
53776;DHT22;44276;49.534;6.378;2022-12-07T04:40:07;3.00;99.90
53776;DHT22;44276;49.534;6.378;2022-12-07T04:42:37;3.00;99.90
53776;DHT22;44276;49.534;6.378;2022-12-07T04:45:06;3.00;99.90
53776;DHT22;44276;49.534;6.378;2022-12-07T04:47:35;3.00;99.90
53776;DHT22;44276;49.534;6.378;2022-12-07T04:50:03;3.10;99.90
53776;DHT22;44276;49.534;6.378;2022-12-07T04:52:32;3.10;99.90
53776;DHT22;44276;49.534;6.378;2022-12-07T04:55:02;3.10;99.90
53776;DHT22;44276;49.534;6.378;2022-12-07T04:57:30;3.20;99.90
53776;DHT22;44276;49.534;6.378;2022-12-07T04:59:58;3.20;99.90
53776;DHT22;44276;49.534;6.378;2022-12-07T05:02:27;3.20;99.90
53776;DHT22;44276;49.534;6.378;2022-12-07T05:04:55;3.20;99.90
53776;DHT22;44276;49.534;6.378;2022-12-07T05:07:24;3.30;99.90
53776;DHT22;44276;49.534;6.378;2022-12-07T05:09:52;3.20;99.90
53776;DHT22;44276;49.534;6.378;2022-12-07T05:12:22;3.20;99.90
53776;DHT22;44276;49.534;6.378;2022-12-07T05:14:50;3.20;99.90
53776;DHT22;44276;49.534;6.378;2022-12-07T05:17:18;3.20;99.90
53776;DHT22;44276;49.534;6.378;2022-12-07T05:19:46;3.20;99.90
53776;DHT22;44276;49.534;6.378;2022-12-07T05:22:14;3.20;99.90
53776;DHT22;44276;49.534;6.378;2022-12-07T05:24:44;3.20;99.90
53776;DHT22;44276;49.534;6.378;2022-12-07T05:27:12;3.20;99.90
53776;DHT22;44276;49.534;6.378;2022-12-07T05:29:42;3.30;99.90
53776;DHT22;44276;49.534;6.378;2022-12-07T05:32:10;3.30;99.90
53776;DHT22;44276;49.534;6.378;2022-12-07T05:34:38;3.20;99.90
53776;DHT22;44276;49.534;6.378;2022-12-07T05:37:08;3.30;99.90
53776;DHT22;44276;49.534;6.378;2022-12-07T05:39:37;3.30;99.90
53776;DHT22;44276;49.534;6.378;2022-12-07T05:42:07;3.30;99.90
53776;DHT22;44276;49.534;6.378;2022-12-07T05:44:44;3.40;99.90
53776;DHT22;44276;49.534;6.378;2022-12-07T05:47:14;3.30;99.90
53776;DHT22;44276;49.534;6.378;2022-12-07T05:49:42;3.40;99.90
53776;DHT22;44276;49.534;6.378;2022-12-07T05:52:11;3.40;99.90
53776;DHT22;44276;49.534;6.378;2022-12-07T05:54:39;3.40;99.90
53776;DHT22;44276;49.534;6.378;2022-12-07T05:57:07;3.40;99.90
53776;DHT22;44276;49.534;6.378;2022-12-07T05:59:35;3.40;99.90
53776;DHT22;44276;49.534;6.378;2022-12-07T06:02:04;3.40;99.90
53776;DHT22;44276;49.534;6.378;2022-12-07T06:04:34;3.40;99.90
53776;DHT22;44276;49.534;6.378;2022-12-07T06:07:05;3.40;99.90
53776;DHT22;44276;49.534;6.378;2022-12-07T06:09:33;3.40;99.90
53776;DHT22;44276;49.534;6.378;2022-12-07T06:12:02;3.40;99.90
53776;DHT22;44276;49.534;6.378;2022-12-07T06:14:48;3.40;99.90
53776;DHT22;44276;49.534;6.378;2022-12-07T06:17:17;3.40;99.90
53776;DHT22;44276;49.534;6.378;2022-12-07T06:19:46;3.40;99.90
53776;DHT22;44276;49.534;6.378;2022-12-07T06:22:14;3.50;99.90
53776;DHT22;44276;49.534;6.378;2022-12-07T06:24:43;3.50;99.90
53776;DHT22;44276;49.534;6.378;2022-12-07T06:27:12;3.50;99.90
53776;DHT22;44276;49.534;6.378;2022-12-07T06:29:40;3.50;99.90
53776;DHT22;44276;49.534;6.378;2022-12-07T06:32:09;3.50;99.90
53776;DHT22;44276;49.534;6.378;2022-12-07T06:34:39;3.50;99.90
53776;DHT22;44276;49.534;6.378;2022-12-07T06:37:07;3.50;99.90
53776;DHT22;44276;49.534;6.378;2022-12-07T06:39:35;3.50;99.90
53776;DHT22;44276;49.534;6.378;2022-12-07T06:42:04;3.50;99.90
53776;DHT22;44276;49.534;6.378;2022-12-07T06:44:33;3.50;99.90
53776;DHT22;44276;49.534;6.378;2022-12-07T06:47:01;3.50;99.90
53776;DHT22;44276;49.534;6.378;2022-12-07T06:49:51;3.50;99.90
53776;DHT22;44276;49.534;6.378;2022-12-07T06:52:19;3.50;99.90
53776;DHT22;44276;49.534;6.378;2022-12-07T06:54:47;3.60;99.90
53776;DHT22;44276;49.534;6.378;2022-12-07T06:57:15;3.60;99.90
53776;DHT22;44276;49.534;6.378;2022-12-07T06:59:44;3.60;99.90
53776;DHT22;44276;49.534;6.378;2022-12-07T07:02:12;3.60;99.90
53776;DHT22;44276;49.534;6.378;2022-12-07T07:04:40;3.60;99.90
53776;DHT22;44276;49.534;6.378;2022-12-07T07:07:09;3.60;99.90
53776;DHT22;44276;49.534;6.378;2022-12-07T07:09:37;3.70;99.90
53776;DHT22;44276;49.534;6.378;2022-12-07T07:12:06;3.70;99.90
53776;DHT22;44276;49.534;6.378;2022-12-07T07:14:37;3.70;99.90
53776;DHT22;44276;49.534;6.378;2022-12-07T07:17:06;3.60;99.90
53776;DHT22;44276;49.534;6.378;2022-12-07T07:19:35;3.60;99.90
53776;DHT22;44276;49.534;6.378;2022-12-07T07:22:04;3.70;99.90
53776;DHT22;44276;49.534;6.378;2022-12-07T07:24:34;3.70;99.90
53776;DHT22;44276;49.534;6.378;2022-12-07T07:27:03;3.70;99.90
53776;DHT22;44276;49.534;6.378;2022-12-07T07:29:31;3.70;99.90
53776;DHT22;44276;49.534;6.378;2022-12-07T07:31:59;3.70;99.90
53776;DHT22;44276;49.534;6.378;2022-12-07T07:34:32;3.70;99.90
53776;DHT22;44276;49.534;6.378;2022-12-07T07:37:00;3.70;99.90
53776;DHT22;44276;49.534;6.378;2022-12-07T07:39:28;3.70;99.90
53776;DHT22;44276;49.534;6.378;2022-12-07T07:41:58;3.80;99.90
53776;DHT22;44276;49.534;6.378;2022-12-07T07:44:26;3.80;99.90
53776;DHT22;44276;49.534;6.378;2022-12-07T07:47:00;3.80;99.90
53776;DHT22;44276;49.534;6.378;2022-12-07T07:49:28;3.80;99.90
53776;DHT22;44276;49.534;6.378;2022-12-07T07:51:56;3.80;99.90
53776;DHT22;44276;49.534;6.378;2022-12-07T07:54:25;3.80;99.90
53776;DHT22;44276;49.534;6.378;2022-12-07T07:56:53;3.80;99.90
53776;DHT22;44276;49.534;6.378;2022-12-07T07:59:22;3.80;99.90
53776;DHT22;44276;49.534;6.378;2022-12-07T08:01:51;3.90;99.90
53776;DHT22;44276;49.534;6.378;2022-12-07T08:04:19;3.90;99.90
53776;DHT22;44276;49.534;6.378;2022-12-07T08:06:47;3.90;99.90
53776;DHT22;44276;49.534;6.378;2022-12-07T08:09:15;4.00;99.90
53776;DHT22;44276;49.534;6.378;2022-12-07T08:11:43;4.00;99.90
53776;DHT22;44276;49.534;6.378;2022-12-07T08:14:11;4.00;99.90
53776;DHT22;44276;49.534;6.378;2022-12-07T08:16:41;4.00;99.90
53776;DHT22;44276;49.534;6.378;2022-12-07T08:19:09;4.10;99.90
53776;DHT22;44276;49.534;6.378;2022-12-07T08:21:38;4.10;99.90
53776;DHT22;44276;49.534;6.378;2022-12-07T08:24:06;4.10;99.90
53776;DHT22;44276;49.534;6.378;2022-12-07T08:26:35;4.10;99.90
53776;DHT22;44276;49.534;6.378;2022-12-07T08:29:03;4.20;99.90
53776;DHT22;44276;49.534;6.378;2022-12-07T08:31:32;4.20;99.90
53776;DHT22;44276;49.534;6.378;2022-12-07T08:34:02;4.20;99.90
53776;DHT22;44276;49.534;6.378;2022-12-07T08:36:30;4.20;99.90
53776;DHT22;44276;49.534;6.378;2022-12-07T08:38:59;4.30;99.90
53776;DHT22;44276;49.534;6.378;2022-12-07T08:41:47;4.30;99.90
53776;DHT22;44276;49.534;6.378;2022-12-07T08:44:15;4.30;99.90
53776;DHT22;44276;49.534;6.378;2022-12-07T08:46:44;4.30;99.90
53776;DHT22;44276;49.534;6.378;2022-12-07T08:49:19;4.30;99.90
53776;DHT22;44276;49.534;6.378;2022-12-07T08:51:51;4.40;99.90
53776;DHT22;44276;49.534;6.378;2022-12-07T08:54:19;4.50;99.90
53776;DHT22;44276;49.534;6.378;2022-12-07T08:56:47;4.50;99.90
53776;DHT22;44276;49.534;6.378;2022-12-07T08:59:24;4.60;99.90
53776;DHT22;44276;49.534;6.378;2022-12-07T09:01:53;4.60;99.90
53776;DHT22;44276;49.534;6.378;2022-12-07T09:04:23;4.60;99.90
53776;DHT22;44276;49.534;6.378;2022-12-07T09:06:51;4.60;99.90
53776;DHT22;44276;49.534;6.378;2022-12-07T09:09:21;4.60;99.90
53776;DHT22;44276;49.534;6.378;2022-12-07T09:11:49;4.70;99.90
53776;DHT22;44276;49.534;6.378;2022-12-07T09:14:18;4.80;99.90
53776;DHT22;44276;49.534;6.378;2022-12-07T09:16:46;4.80;99.90
53776;DHT22;44276;49.534;6.378;2022-12-07T09:19:14;4.90;99.90
53776;DHT22;44276;49.534;6.378;2022-12-07T09:21:44;4.90;99.90
53776;DHT22;44276;49.534;6.378;2022-12-07T09:24:12;5.10;99.90
53776;DHT22;44276;49.534;6.378;2022-12-07T09:26:41;5.10;99.90
53776;DHT22;44276;49.534;6.378;2022-12-07T09:29:10;5.20;99.90
53776;DHT22;44276;49.534;6.378;2022-12-07T09:31:39;5.30;99.90
53776;DHT22;44276;49.534;6.378;2022-12-07T09:34:08;5.40;99.90
53776;DHT22;44276;49.534;6.378;2022-12-07T09:36:36;5.30;99.90
53776;DHT22;44276;49.534;6.378;2022-12-07T09:39:06;5.30;99.90
53776;DHT22;44276;49.534;6.378;2022-12-07T09:41:34;5.30;99.90
53776;DHT22;44276;49.534;6.378;2022-12-07T09:44:06;5.30;99.90
53776;DHT22;44276;49.534;6.378;2022-12-07T09:46:39;5.40;99.90
53776;DHT22;44276;49.534;6.378;2022-12-07T09:49:09;5.50;99.90
53776;DHT22;44276;49.534;6.378;2022-12-07T09:51:40;5.60;99.90
53776;DHT22;44276;49.534;6.378;2022-12-07T09:54:09;5.70;99.90
53776;DHT22;44276;49.534;6.378;2022-12-07T09:56:41;5.80;99.90
53776;DHT22;44276;49.534;6.378;2022-12-07T09:59:12;5.90;99.90
53776;DHT22;44276;49.534;6.378;2022-12-07T10:01:44;6.00;99.90
53776;DHT22;44276;49.534;6.378;2022-12-07T10:04:15;6.00;99.90
53776;DHT22;44276;49.534;6.378;2022-12-07T10:06:46;6.10;99.90
53776;DHT22;44276;49.534;6.378;2022-12-07T10:09:16;6.20;99.90
53776;DHT22;44276;49.534;6.378;2022-12-07T10:14:52;6.20;99.90
53776;DHT22;44276;49.534;6.378;2022-12-07T10:17:37;6.70;99.90
53776;DHT22;44276;49.534;6.378;2022-12-07T10:20:15;8.40;86.00
53776;DHT22;44276;49.534;6.378;2022-12-07T10:22:56;9.90;52.70
53776;DHT22;44276;49.534;6.378;2022-12-07T10:25:28;10.90;41.00
53776;DHT22;44276;49.534;6.378;2022-12-07T10:27:59;11.60;37.50
53776;DHT22;44276;49.534;6.378;2022-12-07T10:30:50;11.60;36.20
53776;DHT22;44276;49.534;6.378;2022-12-07T10:33:33;12.00;34.00
53776;DHT22;44276;49.534;6.378;2022-12-07T10:36:17;12.30;33.10
53776;DHT22;44276;49.534;6.378;2022-12-07T10:38:48;12.80;30.40
53776;DHT22;44276;49.534;6.378;2022-12-07T10:41:19;13.10;29.90
53776;DHT22;44276;49.534;6.378;2022-12-07T10:43:48;13.40;28.60
53776;DHT22;44276;49.534;6.378;2022-12-07T10:52:42;12.90;27.40
53776;DHT22;44276;49.534;6.378;2022-12-07T10:55:21;11.40;29.00
53776;DHT22;44276;49.534;6.378;2022-12-07T11:00:51;9.30;37.50
53776;DHT22;44276;49.534;6.378;2022-12-07T11:03:29;8.70;45.30
53776;DHT22;44276;49.534;6.378;2022-12-07T11:06:37;8.30;44.50
53776;DHT22;44276;49.534;6.378;2022-12-07T11:09:20;8.00;47.30
53776;DHT22;44276;49.534;6.378;2022-12-07T11:12:23;7.90;51.50
53776;DHT22;44276;49.534;6.378;2022-12-07T11:15:03;7.80;49.10
53776;DHT22;44276;49.534;6.378;2022-12-07T11:17:42;7.70;48.10
53776;DHT22;44276;49.534;6.378;2022-12-07T11:20:22;7.50;49.70
53776;DHT22;44276;49.534;6.378;2022-12-07T11:23:12;7.40;46.50
53776;DHT22;44276;49.534;6.378;2022-12-07T11:25:48;7.30;53.00
53776;DHT22;44276;49.534;6.378;2022-12-07T11:28:27;7.10;52.40
53776;DHT22;44276;49.534;6.378;2022-12-07T11:31:11;7.00;57.20
53776;DHT22;44276;49.534;6.378;2022-12-07T11:33:56;6.90;58.90
53776;DHT22;44276;49.534;6.378;2022-12-07T11:36:31;6.70;60.30
53776;DHT22;44276;49.534;6.378;2022-12-07T11:39:07;6.60;64.40
53776;DHT22;44276;49.534;6.378;2022-12-07T11:41:44;6.50;62.50
53776;DHT22;44276;49.534;6.378;2022-12-07T11:44:17;6.60;70.40
53776;DHT22;44276;49.534;6.378;2022-12-07T11:46:58;7.50;59.40
53776;DHT22;44276;49.534;6.378;2022-12-07T11:49:38;9.20;40.40
53776;DHT22;44276;49.534;6.378;2022-12-07T11:52:13;10.40;34.90
53776;DHT22;44276;49.534;6.378;2022-12-07T11:54:48;10.20;33.00
53776;DHT22;44276;49.534;6.378;2022-12-07T11:57:20;9.50;36.70
53776;DHT22;44276;49.534;6.378;2022-12-07T11:59:57;9.50;36.90
53776;DHT22;44276;49.534;6.378;2022-12-07T12:02:33;9.40;36.90
53776;DHT22;44276;49.534;6.378;2022-12-07T12:05:13;9.30;36.80
53776;DHT22;44276;49.534;6.378;2022-12-07T12:07:45;9.30;36.90
53776;DHT22;44276;49.534;6.378;2022-12-07T12:10:42;9.40;38.40
53776;DHT22;44276;49.534;6.378;2022-12-07T12:13:28;9.50;38.40
53776;DHT22;44276;49.534;6.378;2022-12-07T12:16:41;9.30;37.50
53776;DHT22;44276;49.534;6.378;2022-12-07T12:19:30;8.70;37.60
53776;DHT22;44276;49.534;6.378;2022-12-07T12:22:04;8.10;41.60
53776;DHT22;44276;49.534;6.378;2022-12-07T12:24:38;7.70;45.00
53776;DHT22;44276;49.534;6.378;2022-12-07T12:27:09;7.40;51.80
53776;DHT22;44276;49.534;6.378;2022-12-07T12:29:50;7.30;52.70
53776;DHT22;44276;49.534;6.378;2022-12-07T12:32:21;7.20;50.20
53776;DHT22;44276;49.534;6.378;2022-12-07T12:35:20;7.10;50.90
53776;DHT22;44276;49.534;6.378;2022-12-07T12:40:53;7.20;52.40
53776;DHT22;44276;49.534;6.378;2022-12-07T12:43:41;7.20;52.80
53776;DHT22;44276;49.534;6.378;2022-12-07T12:46:38;7.10;54.80
53776;DHT22;44276;49.534;6.378;2022-12-07T13:04:27;6.70;60.00
53776;DHT22;44276;49.534;6.378;2022-12-07T13:10:25;6.60;67.50
53776;DHT22;44276;49.534;6.378;2022-12-07T13:22:36;6.50;66.30
53776;DHT22;44276;49.534;6.378;2022-12-07T13:25:18;6.50;64.50
53776;DHT22;44276;49.534;6.378;2022-12-07T13:27:57;6.50;68.90
53776;DHT22;44276;49.534;6.378;2022-12-07T13:30:29;6.40;68.20
53776;DHT22;44276;49.534;6.378;2022-12-07T13:32:58;6.40;68.30
53776;DHT22;44276;49.534;6.378;2022-12-07T13:35:27;6.40;67.90
53776;DHT22;44276;49.534;6.378;2022-12-07T13:38:04;6.40;70.50
53776;DHT22;44276;49.534;6.378;2022-12-07T13:41:00;6.30;74.00
53776;DHT22;44276;49.534;6.378;2022-12-07T13:43:42;6.40;82.40
53776;DHT22;44276;49.534;6.378;2022-12-07T13:46:11;6.40;74.10
53776;DHT22;44276;49.534;6.378;2022-12-07T13:48:45;6.40;79.30
53776;DHT22;44276;49.534;6.378;2022-12-07T13:51:19;6.40;80.30
53776;DHT22;44276;49.534;6.378;2022-12-07T13:53:50;6.40;88.20
53776;DHT22;44276;49.534;6.378;2022-12-07T13:56:25;6.40;84.10
53776;DHT22;44276;49.534;6.378;2022-12-07T13:59:00;6.30;82.10
53776;DHT22;44276;49.534;6.378;2022-12-07T14:01:33;6.20;80.20
53776;DHT22;44276;49.534;6.378;2022-12-07T14:04:28;6.20;80.00
53776;DHT22;44276;49.534;6.378;2022-12-07T14:06:59;6.10;86.60
53776;DHT22;44276;49.534;6.378;2022-12-07T14:09:29;6.00;91.80
53776;DHT22;44276;49.534;6.378;2022-12-07T14:12:05;6.10;91.30
53776;DHT22;44276;49.534;6.378;2022-12-07T14:14:34;6.20;93.10
53776;DHT22;44276;49.534;6.378;2022-12-07T14:17:10;6.00;94.20
53776;DHT22;44276;49.534;6.378;2022-12-07T14:19:44;6.00;92.20
53776;DHT22;44276;49.534;6.378;2022-12-07T14:22:25;6.10;91.70
53776;DHT22;44276;49.534;6.378;2022-12-07T14:25:17;6.10;92.70
53776;DHT22;44276;49.534;6.378;2022-12-07T14:27:52;6.20;90.10
53776;DHT22;44276;49.534;6.378;2022-12-07T14:30:27;6.20;89.00
53776;DHT22;44276;49.534;6.378;2022-12-07T14:32:57;6.20;88.30
53776;DHT22;44276;49.534;6.378;2022-12-07T14:35:27;6.20;87.40
53776;DHT22;44276;49.534;6.378;2022-12-07T14:37:57;6.00;89.70
53776;DHT22;44276;49.534;6.378;2022-12-07T14:40:26;5.90;92.90
53776;DHT22;44276;49.534;6.378;2022-12-07T14:42:59;5.80;91.90
53776;DHT22;44276;49.534;6.378;2022-12-07T14:45:29;5.70;94.00
53776;DHT22;44276;49.534;6.378;2022-12-07T14:47:58;5.50;99.90
53776;DHT22;44276;49.534;6.378;2022-12-07T14:50:48;5.50;99.90
53776;DHT22;44276;49.534;6.378;2022-12-07T14:53:40;5.50;99.90
53776;DHT22;44276;49.534;6.378;2022-12-07T14:56:15;5.60;99.90
53776;DHT22;44276;49.534;6.378;2022-12-07T14:58:49;5.80;99.90
53776;DHT22;44276;49.534;6.378;2022-12-07T15:01:17;5.80;98.40
53776;DHT22;44276;49.534;6.378;2022-12-07T15:03:45;5.90;97.10
53776;DHT22;44276;49.534;6.378;2022-12-07T15:06:15;5.80;98.80
53776;DHT22;44276;49.534;6.378;2022-12-07T15:08:44;5.70;99.20
53776;DHT22;44276;49.534;6.378;2022-12-07T15:11:18;5.60;99.90
53776;DHT22;44276;49.534;6.378;2022-12-07T15:13:47;5.50;99.90
53776;DHT22;44276;49.534;6.378;2022-12-07T15:16:35;5.30;99.90
53776;DHT22;44276;49.534;6.378;2022-12-07T15:19:24;5.20;99.90
53776;DHT22;44276;49.534;6.378;2022-12-07T15:21:55;5.00;99.90
53776;DHT22;44276;49.534;6.378;2022-12-07T15:24:24;5.00;99.90
53776;DHT22;44276;49.534;6.378;2022-12-07T15:26:52;5.00;99.90
53776;DHT22;44276;49.534;6.378;2022-12-07T15:29:22;4.90;99.90
53776;DHT22;44276;49.534;6.378;2022-12-07T15:31:50;4.80;99.90
53776;DHT22;44276;49.534;6.378;2022-12-07T15:34:23;4.80;99.90
53776;DHT22;44276;49.534;6.378;2022-12-07T15:36:53;4.80;99.90
53776;DHT22;44276;49.534;6.378;2022-12-07T15:39:21;4.80;99.90
53776;DHT22;44276;49.534;6.378;2022-12-07T15:41:50;4.80;99.90
53776;DHT22;44276;49.534;6.378;2022-12-07T15:44:22;4.70;99.90
53776;DHT22;44276;49.534;6.378;2022-12-07T15:47:07;4.70;99.90
53776;DHT22;44276;49.534;6.378;2022-12-07T15:49:36;4.80;99.90
53776;DHT22;44276;49.534;6.378;2022-12-07T15:52:04;4.70;99.90
53776;DHT22;44276;49.534;6.378;2022-12-07T15:54:33;4.70;99.90
53776;DHT22;44276;49.534;6.378;2022-12-07T15:57:01;4.70;99.90
53776;DHT22;44276;49.534;6.378;2022-12-07T16:02:31;4.60;99.90
53776;DHT22;44276;49.534;6.378;2022-12-07T16:05:08;4.60;99.90
53776;DHT22;44276;49.534;6.378;2022-12-07T16:07:36;4.50;99.90
53776;DHT22;44276;49.534;6.378;2022-12-07T16:15:41;4.60;99.90
53776;DHT22;44276;49.534;6.378;2022-12-07T16:18:16;4.60;99.90
53776;DHT22;44276;49.534;6.378;2022-12-07T16:20:54;4.50;99.90
53776;DHT22;44276;49.534;6.378;2022-12-07T16:23:22;4.40;99.90
53776;DHT22;44276;49.534;6.378;2022-12-07T16:25:50;4.30;99.90
53776;DHT22;44276;49.534;6.378;2022-12-07T16:28:19;4.20;99.90
53776;DHT22;44276;49.534;6.378;2022-12-07T16:30:47;4.20;99.90
53776;DHT22;44276;49.534;6.378;2022-12-07T16:33:16;4.20;99.90
53776;DHT22;44276;49.534;6.378;2022-12-07T16:35:46;4.10;99.90
53776;DHT22;44276;49.534;6.378;2022-12-07T16:38:14;4.10;99.90
53776;DHT22;44276;49.534;6.378;2022-12-07T16:40:42;4.10;99.90
53776;DHT22;44276;49.534;6.378;2022-12-07T16:43:10;4.00;99.90
53776;DHT22;44276;49.534;6.378;2022-12-07T16:45:41;4.00;99.90
53776;DHT22;44276;49.534;6.378;2022-12-07T16:48:09;4.10;99.90
53776;DHT22;44276;49.534;6.378;2022-12-07T16:50:39;4.20;99.90
53776;DHT22;44276;49.534;6.378;2022-12-07T16:53:16;4.30;99.90
53776;DHT22;44276;49.534;6.378;2022-12-07T16:55:44;4.30;99.90
53776;DHT22;44276;49.534;6.378;2022-12-07T16:58:14;4.30;99.90
53776;DHT22;44276;49.534;6.378;2022-12-07T17:00:43;4.30;99.90
53776;DHT22;44276;49.534;6.378;2022-12-07T17:03:13;4.30;99.90
53776;DHT22;44276;49.534;6.378;2022-12-07T17:05:48;4.20;99.90
53776;DHT22;44276;49.534;6.378;2022-12-07T17:08:16;4.20;99.90
53776;DHT22;44276;49.534;6.378;2022-12-07T17:10:44;4.10;99.90
53776;DHT22;44276;49.534;6.378;2022-12-07T17:13:13;4.10;99.90
53776;DHT22;44276;49.534;6.378;2022-12-07T17:16:00;4.10;99.90
53776;DHT22;44276;49.534;6.378;2022-12-07T17:18:30;4.10;99.90
53776;DHT22;44276;49.534;6.378;2022-12-07T17:21:05;4.10;99.90